Aviation Digital Data Service (ADDS)

Output produced by METARs form (0946 UTC 20 November 2017)
found at http://aviationweather.gov/adds/metars/
 
KBTR 200853Z AUTO 01003KT 10SM CLR 03/01 A3023 RMK AO2 SLP237 T00280011 58004 $